Time;durP1;ratioP1;P1;durP2;ratioP2;P2;SDS_P1;SDS_P2;PMS_P1;PMS_P2;Temp;Humidity;BMP_temperature;BMP_pressure;BME280_temperature;BME280_humidity;BME280_pressure;Samples;Min_cycle;Max_cycle;Signal;HPM_P1;HPM_P2
2022/07/25 00:01:26;;;;;;;;;;;24.20;69.20;;;;;;5024797;28;19909;-69
2022/07/25 00:03:51;;;;;;;;;;;24.20;69.30;;;;;;5035821;28;19916;-69
2022/07/25 00:06:17;;;;;;;;;;;24.20;69.40;;;;;;5016553;28;19914;-69
2022/07/25 00:08:42;;;;;;;;;;;24.10;69.20;;;;;;5029858;28;19927;-70
2022/07/25 00:11:08;;;;;;;;;;;24.10;69.30;;;;;;5033062;28;19992;-69
2022/07/25 00:13:33;;;;;;;;;;;24.10;69.40;;;;;;5023529;28;20445;-69
2022/07/25 00:15:59;;;;;;;;;;;24.10;69.40;;;;;;5031925;28;19913;-69
2022/07/25 00:18:24;;;;;;;;;;;24.00;69.40;;;;;;5023646;28;19920;-69
2022/07/25 00:20:50;;;;;;;;;;;24.00;69.50;;;;;;5034490;28;20281;-69
2022/07/25 00:23:15;;;;;;;;;;;24.00;69.40;;;;;;5027906;28;19913;-69
2022/07/25 00:25:41;;;;;;;;;;;24.00;69.60;;;;;;5023168;28;20338;-69
2022/07/25 00:28:06;;;;;;;;;;;23.90;69.30;;;;;;5033041;28;20011;-69
2022/07/25 00:30:31;;;;;;;;;;;23.90;69.30;;;;;;5025800;28;20021;-69
2022/07/25 00:32:57;;;;;;;;;;;23.90;69.30;;;;;;5035602;28;19909;-69
2022/07/25 00:35:23;;;;;;;;;;;23.90;69.40;;;;;;5037608;28;19917;-69
2022/07/25 00:37:48;;;;;;;;;;;23.90;69.50;;;;;;5020875;28;19921;-70
2022/07/25 00:40:13;;;;;;;;;;;23.80;69.50;;;;;;5035140;28;19917;-69
2022/07/25 00:42:39;;;;;;;;;;;23.90;69.50;;;;;;5017733;28;19981;-69
2022/07/25 00:45:05;;;;;;;;;;;23.80;69.50;;;;;;5040358;28;20273;-69
2022/07/25 00:47:30;;;;;;;;;;;23.80;69.50;;;;;;5029503;28;19909;-69
2022/07/25 00:49:56;;;;;;;;;;;23.80;69.50;;;;;;5033577;28;20041;-69
2022/07/25 00:52:23;;;;;;;;;;;23.80;69.30;;;;;;5040009;28;20396;-69
2022/07/25 00:54:49;;;;;;;;;;;23.70;69.30;;;;;;5023593;28;20519;-69
2022/07/25 00:57:14;;;;;;;;;;;23.70;69.30;;;;;;5004817;28;20008;-70
2022/07/25 00:59:40;;;;;;;;;;;23.70;69.20;;;;;;5022919;28;20004;-70
2022/07/25 01:02:05;;;;;;;;;;;23.70;69.50;;;;;;5041156;28;19999;-69
2022/07/25 01:04:31;;;;;;;;;;;23.70;69.50;;;;;;5040482;28;19917;-69
2022/07/25 01:06:57;;;;;;;;;;;23.60;69.60;;;;;;5033337;28;20358;-69
2022/07/25 01:09:22;;;;;;;;;;;23.60;69.60;;;;;;5039717;28;19917;-69
2022/07/25 01:11:48;;;;;;;;;;;23.60;69.50;;;;;;5018449;28;19921;-69
2022/07/25 01:14:13;;;;;;;;;;;23.60;69.40;;;;;;5024268;28;20019;-69
2022/07/25 01:16:40;;;;;;;;;;;23.50;69.50;;;;;;5034255;28;20044;-69
2022/07/25 01:19:06;;;;;;;;;;;23.50;69.50;;;;;;5031205;28;20004;-69
2022/07/25 01:21:31;;;;;;;;;;;23.50;69.60;;;;;;5011687;28;20434;-69
2022/07/25 01:23:57;;;;;;;;;;;23.50;69.50;;;;;;5029456;28;19977;-69
2022/07/25 01:26:22;;;;;;;;;;;23.50;69.50;;;;;;5027152;28;19917;-69
2022/07/25 01:28:48;;;;;;;;;;;23.50;69.60;;;;;;5022422;28;19940;-69
2022/07/25 01:31:13;;;;;;;;;;;23.40;69.60;;;;;;5022802;28;19942;-69
2022/07/25 01:33:39;;;;;;;;;;;23.40;69.60;;;;;;5034396;28;20398;-69
2022/07/25 01:36:05;;;;;;;;;;;23.30;69.40;;;;;;5024219;28;19914;-69
2022/07/25 01:38:30;;;;;;;;;;;23.40;69.50;;;;;;5027950;28;19949;-69
2022/07/25 01:40:56;;;;;;;;;;;23.30;69.20;;;;;;5029135;28;20011;-69
2022/07/25 01:43:21;;;;;;;;;;;23.30;69.40;;;;;;5040797;28;19913;-69
2022/07/25 01:45:47;;;;;;;;;;;23.30;69.50;;;;;;5022037;28;19998;-69
2022/07/25 01:48:12;;;;;;;;;;;23.30;70.00;;;;;;5024180;28;19917;-69
2022/07/25 01:50:38;;;;;;;;;;;23.30;69.60;;;;;;5034735;28;20288;-69
2022/07/25 01:53:03;;;;;;;;;;;23.30;69.60;;;;;;5029017;28;20004;-70
2022/07/25 01:55:29;;;;;;;;;;;23.30;69.60;;;;;;5028417;28;20366;-70
2022/07/25 01:57:54;;;;;;;;;;;23.30;69.70;;;;;;5022730;28;19981;-69
2022/07/25 02:00:20;;;;;;;;;;;23.20;69.70;;;;;;5043533;28;19913;-69
2022/07/25 02:02:46;;;;;;;;;;;23.20;69.70;;;;;;5043889;28;20043;-70
2022/07/25 02:05:12;;;;;;;;;;;23.20;69.40;;;;;;5031308;28;19912;-70
2022/07/25 02:07:38;;;;;;;;;;;23.10;69.60;;;;;;5039344;28;20146;-69
2022/07/25 02:10:05;;;;;;;;;;;23.10;69.80;;;;;;5028705;28;20004;-69
2022/07/25 02:12:30;;;;;;;;;;;23.10;69.60;;;;;;5038581;28;19913;-69
2022/07/25 02:14:56;;;;;;;;;;;23.10;69.50;;;;;;5030169;28;19920;-69
2022/07/25 02:17:22;;;;;;;;;;;23.10;69.70;;;;;;5024139;28;19914;-67
2022/07/25 02:19:47;;;;;;;;;;;23.10;69.40;;;;;;5005337;28;19919;-67
2022/07/25 02:22:13;;;;;;;;;;;23.00;69.60;;;;;;5024108;28;19969;-67
2022/07/25 02:24:39;;;;;;;;;;;23.00;69.60;;;;;;5023797;28;19913;-67
2022/07/25 02:27:04;;;;;;;;;;;23.00;69.60;;;;;;5023730;28;19935;-67
2022/07/25 02:29:31;;;;;;;;;;;23.00;70.00;;;;;;5024106;28;19953;-67
2022/07/25 02:31:56;;;;;;;;;;;23.00;70.10;;;;;;5023839;28;19924;-67
2022/07/25 02:34:22;;;;;;;;;;;22.90;69.80;;;;;;5024282;28;19921;-67
2022/07/25 02:36:47;;;;;;;;;;;22.90;69.60;;;;;;5024393;28;19923;-67
2022/07/25 02:39:13;;;;;;;;;;;22.90;69.50;;;;;;5031815;28;20288;-67
2022/07/25 02:41:38;;;;;;;;;;;22.90;69.50;;;;;;5042698;28;19912;-67
2022/07/25 02:44:05;;;;;;;;;;;22.90;69.90;;;;;;5042275;28;19920;-67
2022/07/25 02:46:30;;;;;;;;;;;22.90;69.90;;;;;;5017817;28;19921;-67
2022/07/25 02:48:56;;;;;;;;;;;22.80;70.10;;;;;;5006452;28;19920;-67
2022/07/25 02:51:21;;;;;;;;;;;22.80;70.20;;;;;;5042626;28;20388;-67
2022/07/25 02:53:47;;;;;;;;;;;22.80;70.30;;;;;;5035687;28;20281;-67
2022/07/25 02:56:13;;;;;;;;;;;22.80;70.10;;;;;;5024110;28;20370;-67
2022/07/25 02:58:38;;;;;;;;;;;22.80;70.00;;;;;;5024076;28;19913;-67
2022/07/25 03:01:04;;;;;;;;;;;22.70;69.80;;;;;;5024105;28;19909;-67
2022/07/25 03:03:29;;;;;;;;;;;22.80;69.90;;;;;;5033682;28;19917;-67
2022/07/25 03:05:55;;;;;;;;;;;22.70;70.10;;;;;;5026008;28;19960;-67
2022/07/25 03:08:20;;;;;;;;;;;22.70;70.20;;;;;;5023706;28;20276;-67
2022/07/25 03:10:46;;;;;;;;;;;22.70;70.10;;;;;;5022695;27;19924;-67
2022/07/25 03:13:11;;;;;;;;;;;22.70;70.50;;;;;;5026493;28;19913;-67
2022/07/25 03:15:37;;;;;;;;;;;22.70;70.50;;;;;;5023593;28;19917;-67
2022/07/25 03:18:02;;;;;;;;;;;22.60;70.70;;;;;;5023137;28;20024;-67
2022/07/25 03:20:28;;;;;;;;;;;22.60;70.60;;;;;;5023944;28;20392;-67
2022/07/25 03:22:53;;;;;;;;;;;22.60;70.20;;;;;;5024031;28;19921;-67
2022/07/25 03:25:19;;;;;;;;;;;22.60;70.30;;;;;;5023729;28;19914;-67
2022/07/25 03:27:45;;;;;;;;;;;22.60;70.40;;;;;;5023250;28;19996;-67
2022/07/25 03:30:11;;;;;;;;;;;22.50;70.30;;;;;;5023874;28;19914;-67
2022/07/25 03:32:36;;;;;;;;;;;22.50;70.50;;;;;;5020929;28;20055;-67
2022/07/25 03:35:02;;;;;;;;;;;22.50;70.50;;;;;;5034423;28;20428;-67
2022/07/25 03:37:27;;;;;;;;;;;22.50;70.60;;;;;;5023366;28;19913;-67
2022/07/25 03:39:53;;;;;;;;;;;22.50;70.70;;;;;;5038147;28;20000;-67
2022/07/25 03:42:19;;;;;;;;;;;22.40;70.80;;;;;;5041654;28;19915;-67
2022/07/25 03:44:44;;;;;;;;;;;22.40;70.90;;;;;;5042101;28;19991;-67
2022/07/25 03:47:10;;;;;;;;;;;22.40;70.60;;;;;;5032891;28;20025;-67
2022/07/25 03:49:36;;;;;;;;;;;22.40;70.60;;;;;;5023312;28;19969;-67
2022/07/25 03:52:01;;;;;;;;;;;22.40;70.60;;;;;;5029487;28;20007;-67
2022/07/25 03:54:26;;;;;;;;;;;22.40;70.80;;;;;;5029024;28;20475;-67
2022/07/25 03:56:52;;;;;;;;;;;22.40;71.00;;;;;;5022712;28;20533;-67
2022/07/25 03:59:18;;;;;;;;;;;22.30;70.90;;;;;;5023022;28;19940;-67
2022/07/25 04:01:45;;;;;;;;;;;22.30;70.90;;;;;;5023034;28;20600;-67
2022/07/25 04:04:10;;;;;;;;;;;22.30;71.00;;;;;;5020228;28;19909;-67
2022/07/25 04:06:36;;;;;;;;;;;22.30;70.80;;;;;;5024819;28;19936;-67
2022/07/25 04:09:02;;;;;;;;;;;22.30;70.80;;;;;;5031341;28;19924;-67
2022/07/25 04:11:29;;;;;;;;;;;22.30;70.50;;;;;;5040591;28;19936;-67
2022/07/25 04:13:55;;;;;;;;;;;22.30;70.50;;;;;;5036843;28;19913;-67
2022/07/25 04:16:21;;;;;;;;;;;22.30;70.70;;;;;;5021784;28;19916;-67
2022/07/25 04:18:46;;;;;;;;;;;22.30;70.80;;;;;;5022389;28;19913;-67
2022/07/25 04:21:12;;;;;;;;;;;22.30;70.70;;;;;;5020840;28;19917;-67
2022/07/25 04:23:37;;;;;;;;;;;22.30;70.60;;;;;;5022484;28;19913;-67
2022/07/25 04:26:03;;;;;;;;;;;22.30;70.70;;;;;;5028815;28;19923;-67
2022/07/25 04:28:29;;;;;;;;;;;22.30;70.70;;;;;;5040941;28;20510;-67
2022/07/25 04:30:55;;;;;;;;;;;22.30;70.30;;;;;;5040723;28;20086;-67
2022/07/25 04:33:21;;;;;;;;;;;22.20;70.70;;;;;;5020142;28;19913;-67
2022/07/25 04:35:46;;;;;;;;;;;22.30;70.70;;;;;;5022672;28;19920;-67
2022/07/25 04:38:12;;;;;;;;;;;22.30;70.60;;;;;;5025606;28;19917;-67
2022/07/25 04:40:38;;;;;;;;;;;22.30;70.40;;;;;;5040963;28;19913;-67
2022/07/25 04:43:03;;;;;;;;;;;22.30;70.50;;;;;;5029062;28;19917;-67
2022/07/25 04:45:29;;;;;;;;;;;22.30;70.50;;;;;;5022734;28;19917;-67
2022/07/25 04:47:55;;;;;;;;;;;22.30;70.40;;;;;;5004533;28;19912;-67
2022/07/25 04:50:20;;;;;;;;;;;22.30;70.60;;;;;;5022606;28;20011;-67
2022/07/25 04:52:46;;;;;;;;;;;22.30;70.60;;;;;;5004731;28;20536;-67
2022/07/25 04:55:12;;;;;;;;;;;22.30;70.70;;;;;;5022574;28;20316;-67
2022/07/25 04:57:37;;;;;;;;;;;22.30;70.60;;;;;;5022344;28;19945;-67
2022/07/25 05:00:04;;;;;;;;;;;22.40;70.40;;;;;;5030993;28;19928;-67
2022/07/25 05:02:29;;;;;;;;;;;22.40;70.70;;;;;;5040875;28;19914;-67
2022/07/25 05:04:54;;;;;;;;;;;22.40;70.60;;;;;;5037865;28;19920;-67
2022/07/25 05:07:20;;;;;;;;;;;22.30;70.40;;;;;;5022021;28;19920;-67
2022/07/25 05:09:45;;;;;;;;;;;22.40;70.50;;;;;;5022177;28;19974;-67
2022/07/25 05:12:11;;;;;;;;;;;22.40;70.60;;;;;;5022394;28;19952;-67
2022/07/25 05:14:37;;;;;;;;;;;22.40;70.40;;;;;;5022521;28;19914;-67
2022/07/25 05:17:03;;;;;;;;;;;22.40;70.40;;;;;;5016182;28;20049;-67
2022/07/25 05:19:28;;;;;;;;;;;22.40;70.50;;;;;;5040796;28;19912;-67
2022/07/25 05:21:54;;;;;;;;;;;22.40;70.30;;;;;;5040511;28;19962;-67
2022/07/25 05:24:21;;;;;;;;;;;22.40;70.40;;;;;;5021938;28;19958;-67
2022/07/25 05:26:47;;;;;;;;;;;22.40;70.50;;;;;;5040417;28;19912;-67
2022/07/25 05:29:12;;;;;;;;;;;22.40;70.30;;;;;;5040600;28;19966;-67
2022/07/25 05:31:38;;;;;;;;;;;22.40;70.30;;;;;;5040057;28;19916;-67
2022/07/25 05:34:04;;;;;;;;;;;22.40;70.30;;;;;;5027448;28;20340;-67
2022/07/25 05:36:30;;;;;;;;;;;22.50;70.40;;;;;;5021682;28;19970;-67
2022/07/25 05:38:55;;;;;;;;;;;22.50;70.30;;;;;;5021619;28;19909;-67
2022/07/25 05:41:21;;;;;;;;;;;22.50;70.10;;;;;;5021093;28;19963;-67
2022/07/25 05:43:47;;;;;;;;;;;22.50;70.10;;;;;;5021106;28;20030;-67
2022/07/25 05:46:13;;;;;;;;;;;22.60;70.00;;;;;;5003398;28;20024;-67
2022/07/25 05:48:39;;;;;;;;;;;22.60;70.10;;;;;;5003813;28;19916;-67
2022/07/25 05:51:05;;;;;;;;;;;22.60;70.00;;;;;;5030834;28;19925;-67
2022/07/25 05:53:31;;;;;;;;;;;22.60;70.10;;;;;;5034851;28;19909;-67
2022/07/25 05:55:56;;;;;;;;;;;22.60;70.00;;;;;;5003983;28;19917;-67
2022/07/25 05:58:22;;;;;;;;;;;22.70;70.10;;;;;;5023401;28;19924;-67
2022/07/25 06:00:49;;;;;;;;;;;22.70;69.90;;;;;;5034472;28;19917;-67
2022/07/25 06:03:16;;;;;;;;;;;22.70;69.90;;;;;;5038804;28;19965;-67
2022/07/25 06:05:42;;;;;;;;;;;22.70;69.80;;;;;;5012969;28;20008;-67
2022/07/25 06:08:07;;;;;;;;;;;22.80;69.80;;;;;;5021027;28;20023;-67
2022/07/25 06:10:33;;;;;;;;;;;22.80;69.70;;;;;;5021238;28;19957;-67
2022/07/25 06:12:58;;;;;;;;;;;22.80;69.60;;;;;;5021258;28;19938;-67
2022/07/25 06:15:24;;;;;;;;;;;22.90;69.60;;;;;;5020848;28;19913;-67
2022/07/25 06:17:49;;;;;;;;;;;22.90;69.60;;;;;;5021019;28;19913;-67
2022/07/25 06:20:15;;;;;;;;;;;22.90;69.60;;;;;;5021309;28;19920;-67
2022/07/25 06:22:40;;;;;;;;;;;22.90;69.50;;;;;;5021187;28;19992;-67
2022/07/25 06:25:06;;;;;;;;;;;22.90;69.50;;;;;;5003323;28;19919;-67
2022/07/25 06:27:32;;;;;;;;;;;22.90;69.50;;;;;;5021391;28;19948;-67
2022/07/25 06:29:57;;;;;;;;;;;22.90;69.40;;;;;;5033402;28;19951;-67
2022/07/25 06:32:23;;;;;;;;;;;23.00;69.50;;;;;;5039805;28;19940;-67
2022/07/25 06:34:48;;;;;;;;;;;23.00;69.50;;;;;;5036781;28;19913;-67
2022/07/25 06:37:14;;;;;;;;;;;23.00;69.40;;;;;;5020826;28;19909;-67
2022/07/25 06:39:40;;;;;;;;;;;23.00;69.40;;;;;;5037362;28;19912;-67
2022/07/25 06:42:06;;;;;;;;;;;23.00;69.40;;;;;;5039355;28;19920;-67
2022/07/25 06:44:32;;;;;;;;;;;23.10;69.40;;;;;;5039737;28;20066;-67
2022/07/25 06:46:59;;;;;;;;;;;23.10;69.30;;;;;;5034083;28;20574;-67
2022/07/25 06:49:24;;;;;;;;;;;23.10;69.20;;;;;;5006337;28;19916;-67
2022/07/25 06:51:50;;;;;;;;;;;23.10;69.20;;;;;;5024371;28;19921;-67
2022/07/25 06:54:17;;;;;;;;;;;23.20;69.20;;;;;;5024058;28;20319;-67
2022/07/25 06:56:43;;;;;;;;;;;23.20;69.10;;;;;;5024122;28;19917;-67
2022/07/25 06:59:08;;;;;;;;;;;23.20;69.00;;;;;;5024086;28;19919;-67
2022/07/25 07:01:34;;;;;;;;;;;23.30;69.00;;;;;;5033842;28;19908;-67
2022/07/25 07:03:59;;;;;;;;;;;23.30;68.80;;;;;;5032947;28;19920;-67
2022/07/25 07:06:25;;;;;;;;;;;23.40;68.90;;;;;;5024056;28;20348;-67
2022/07/25 07:08:50;;;;;;;;;;;23.50;68.70;;;;;;5024242;28;19909;-67
2022/07/25 07:11:16;;;;;;;;;;;23.50;68.80;;;;;;5037349;28;19917;-67
2022/07/25 07:13:41;;;;;;;;;;;23.50;68.70;;;;;;5042233;28;20406;-67
2022/07/25 07:16:07;;;;;;;;;;;23.50;68.60;;;;;;5041627;28;19960;-67
2022/07/25 07:18:32;;;;;;;;;;;23.50;68.70;;;;;;5024027;28;20577;-67
2022/07/25 07:20:58;;;;;;;;;;;23.60;68.70;;;;;;5034849;28;20626;-67
2022/07/25 07:23:23;;;;;;;;;;;23.60;68.60;;;;;;5037815;28;19928;-67
2022/07/25 07:25:49;;;;;;;;;;;23.60;68.60;;;;;;5005953;28;20012;-67
2022/07/25 07:28:14;;;;;;;;;;;23.60;68.50;;;;;;5023570;28;19918;-67
2022/07/25 07:30:41;;;;;;;;;;;23.60;68.50;;;;;;5023850;28;20229;-67
2022/07/25 07:33:07;;;;;;;;;;;23.60;68.50;;;;;;5023806;28;19913;-67
2022/07/25 07:35:32;;;;;;;;;;;23.60;68.40;;;;;;5023575;28;19924;-67
2022/07/25 07:37:57;;;;;;;;;;;23.70;68.50;;;;;;5026301;28;19913;-67
2022/07/25 07:40:25;;;;;;;;;;;23.70;68.30;;;;;;5042131;28;19992;-67
2022/07/25 07:42:51;;;;;;;;;;;23.70;68.40;;;;;;5042058;28;19915;-67
2022/07/25 07:45:18;;;;;;;;;;;23.80;68.30;;;;;;5041980;28;19921;-67
2022/07/25 07:47:46;;;;;;;;;;;23.80;68.40;;;;;;5019583;28;19948;-67
2022/07/25 07:50:12;;;;;;;;;;;23.80;68.20;;;;;;5025954;28;19913;-67
2022/07/25 07:52:38;;;;;;;;;;;23.90;68.10;;;;;;5042105;28;20440;-67
2022/07/25 07:57:48;;;;;;;;;;;24.00;67.90;;;;;;5023857;28;19921;-67
2022/07/25 08:00:15;;;;;;;;;;;24.00;67.80;;;;;;5023477;28;19913;-67
2022/07/25 08:02:41;;;;;;;;;;;24.00;67.80;;;;;;5038519;28;19974;-67
2022/07/25 08:05:07;;;;;;;;;;;24.10;67.70;;;;;;5023122;28;20052;-67
2022/07/25 08:07:32;;;;;;;;;;;24.10;67.70;;;;;;5005272;28;20492;-67
2022/07/25 08:09:58;;;;;;;;;;;24.20;67.60;;;;;;5023314;28;19913;-67
2022/07/25 08:12:23;;;;;;;;;;;24.30;67.30;;;;;;5022957;28;20339;-67
2022/07/25 08:14:48;;;;;;;;;;;24.40;67.20;;;;;;5023328;28;19932;-67
2022/07/25 08:17:14;;;;;;;;;;;24.40;67.20;;;;;;5023578;28;20581;-67
2022/07/25 08:19:39;;;;;;;;;;;24.50;67.10;;;;;;5023342;28;19921;-67
2022/07/25 08:22:05;;;;;;;;;;;24.50;67.50;;;;;;5023312;28;19917;-67
2022/07/25 08:24:30;;;;;;;;;;;24.60;66.90;;;;;;5035775;28;19948;-67
2022/07/25 08:26:56;;;;;;;;;;;24.60;67.20;;;;;;5023004;28;20855;-67
2022/07/25 08:29:21;;;;;;;;;;;24.70;66.80;;;;;;5041530;28;19920;-67
2022/07/25 08:31:47;;;;;;;;;;;24.70;66.80;;;;;;5041198;28;19924;-67
2022/07/25 08:34:12;;;;;;;;;;;24.80;66.70;;;;;;5037686;28;20012;-67
2022/07/25 08:36:38;;;;;;;;;;;24.80;66.60;;;;;;5022747;28;19920;-67
2022/07/25 08:39:04;;;;;;;;;;;24.90;66.50;;;;;;5033665;28;19913;-67
2022/07/25 08:41:31;;;;;;;;;;;24.90;66.50;;;;;;5023153;28;20547;-67
2022/07/25 08:43:57;;;;;;;;;;;25.00;66.40;;;;;;5041312;28;19970;-67
2022/07/25 08:46:23;;;;;;;;;;;25.00;66.30;;;;;;5038601;28;19996;-67
2022/07/25 08:48:49;;;;;;;;;;;25.00;66.30;;;;;;5021757;28;19917;-67
2022/07/25 08:51:15;;;;;;;;;;;25.10;66.80;;;;;;5022196;28;20331;-67
2022/07/25 08:53:42;;;;;;;;;;;25.10;65.90;;;;;;5021536;28;20229;-68
2022/07/25 08:56:08;;;;;;;;;;;25.10;65.80;;;;;;5004083;28;20083;-67
2022/07/25 08:58:33;;;;;;;;;;;25.20;65.80;;;;;;5022418;28;19920;-67
2022/07/25 09:00:59;;;;;;;;;;;25.20;65.80;;;;;;5022843;28;19913;-67
2022/07/25 09:03:25;;;;;;;;;;;25.30;65.80;;;;;;5023107;28;19913;-67
2022/07/25 09:05:51;;;;;;;;;;;25.30;66.40;;;;;;5024354;28;20003;-67
2022/07/25 09:08:16;;;;;;;;;;;25.30;65.80;;;;;;5039809;28;19956;-67
2022/07/25 09:10:46;;;;;;;;;;;25.30;65.80;;;;;;5040403;28;19916;-67
2022/07/25 09:13:13;;;;;;;;;;;25.40;65.80;;;;;;5040704;28;19993;-67
2022/07/25 09:15:40;;;;;;;;;;;25.40;65.70;;;;;;5040865;28;19913;-67
2022/07/25 09:18:06;;;;;;;;;;;25.50;65.70;;;;;;5025077;28;19973;-67
2022/07/25 09:20:58;;;;;;;;;;;25.50;65.80;;;;;;5022526;28;20370;-67
2022/07/25 09:23:27;;;;;;;;;;;25.50;65.80;;;;;;5019148;28;20407;-67
2022/07/25 09:26:00;;;;;;;;;;;25.60;65.80;;;;;;5022439;28;19917;-67
2022/07/25 09:28:25;;;;;;;;;;;25.60;65.80;;;;;;5022014;28;19919;-67
2022/07/25 09:30:53;;;;;;;;;;;25.60;65.70;;;;;;5022264;28;19917;-67
2022/07/25 09:33:19;;;;;;;;;;;25.60;65.60;;;;;;5040457;28;19920;-67
2022/07/25 09:35:45;;;;;;;;;;;25.60;65.60;;;;;;5030503;28;20028;-67
2022/07/25 09:38:11;;;;;;;;;;;25.70;65.60;;;;;;5021240;28;19921;-67
2022/07/25 09:40:37;;;;;;;;;;;25.70;65.40;;;;;;5021626;28;19913;-67
2022/07/25 09:43:03;;;;;;;;;;;25.70;65.60;;;;;;5021805;28;20584;-67
2022/07/25 09:45:28;;;;;;;;;;;25.70;65.70;;;;;;5003921;28;20000;-67
2022/07/25 09:48:01;;;;;;;;;;;25.70;65.70;;;;;;5003539;28;20024;-67
2022/07/25 09:50:28;;;;;;;;;;;25.70;65.60;;;;;;5021572;28;19917;-67
2022/07/25 09:52:55;;;;;;;;;;;25.80;65.50;;;;;;5021758;28;19909;-67
2022/07/25 09:55:21;;;;;;;;;;;25.90;65.60;;;;;;5021738;28;19914;-67
2022/07/25 09:57:48;;;;;;;;;;;25.90;65.50;;;;;;5021772;28;19917;-67
2022/07/25 10:00:15;;;;;;;;;;;25.90;65.40;;;;;;5037389;28;19916;-67
2022/07/25 10:02:48;;;;;;;;;;;25.90;65.70;;;;;;5035628;28;19923;-67
2022/07/25 10:05:16;;;;;;;;;;;25.90;66.30;;;;;;5027499;28;19920;-67
2022/07/25 10:07:43;;;;;;;;;;;26.00;65.70;;;;;;5039636;28;19956;-67
2022/07/25 10:10:18;;;;;;;;;;;26.10;65.60;;;;;;5039713;28;19917;-67
2022/07/25 10:12:56;;;;;;;;;;;26.20;65.40;;;;;;5020258;28;19917;-67
2022/07/25 10:15:22;;;;;;;;;;;26.20;65.20;;;;;;5038219;28;19919;-67
2022/07/25 10:17:49;;;;;;;;;;;26.30;65.20;;;;;;5024691;28;20366;-67
2022/07/25 10:20:14;;;;;;;;;;;26.40;65.10;;;;;;5022999;28;19914;-67
2022/07/25 10:22:41;;;;;;;;;;;26.40;65.00;;;;;;5023378;28;19919;-67
2022/07/25 10:25:10;;;;;;;;;;;26.40;65.10;;;;;;5023906;28;19915;-66
2022/07/25 10:27:40;;;;;;;;;;;26.30;65.00;;;;;;5024650;28;19913;-67
2022/07/25 10:30:09;;;;;;;;;;;26.30;65.30;;;;;;5007299;28;19910;-67
2022/07/25 10:32:34;;;;;;;;;;;26.20;65.30;;;;;;5006918;28;19913;-67
2022/07/25 10:35:10;;;;;;;;;;;26.20;65.40;;;;;;5025044;28;19930;-67
2022/07/25 10:37:36;;;;;;;;;;;26.20;65.50;;;;;;5024217;28;19943;-67
2022/07/25 10:40:02;;;;;;;;;;;26.20;65.50;;;;;;5042089;28;19914;-67
2022/07/25 10:42:31;;;;;;;;;;;26.20;65.50;;;;;;5042655;28;19920;-67
2022/07/25 10:45:00;;;;;;;;;;;26.20;65.50;;;;;;5033939;28;19917;-67
2022/07/25 10:47:26;;;;;;;;;;;26.20;65.40;;;;;;5024475;28;19913;-67
2022/07/25 10:49:55;;;;;;;;;;;26.20;65.40;;;;;;5025026;28;19917;-67
2022/07/25 10:52:25;;;;;;;;;;;26.20;65.50;;;;;;5042038;28;19917;-67
2022/07/25 10:54:53;;;;;;;;;;;26.20;65.50;;;;;;5027048;28;19914;-67
2022/07/25 10:57:19;;;;;;;;;;;26.20;65.50;;;;;;5024340;28;19952;-67
2022/07/25 10:59:45;;;;;;;;;;;26.20;65.50;;;;;;5024604;28;19949;-67
2022/07/25 11:02:17;;;;;;;;;;;26.40;65.50;;;;;;5024782;28;19914;-67
2022/07/25 11:04:43;;;;;;;;;;;26.40;65.50;;;;;;5024727;28;19919;-67
2022/07/25 11:07:13;;;;;;;;;;;26.40;65.30;;;;;;5033609;28;19960;-67
2022/07/25 11:09:40;;;;;;;;;;;26.50;65.30;;;;;;5032428;28;19920;-67
2022/07/25 11:12:06;;;;;;;;;;;26.60;65.10;;;;;;5024423;28;19917;-67
2022/07/25 11:14:32;;;;;;;;;;;26.70;65.20;;;;;;5024564;28;19974;-67
2022/07/25 11:17:09;;;;;;;;;;;26.80;65.10;;;;;;5024582;28;19913;-67
2022/07/25 11:19:34;;;;;;;;;;;26.90;65.30;;;;;;5024751;28;19913;-67
2022/07/25 11:22:03;;;;;;;;;;;27.00;65.10;;;;;;5024709;28;19914;-67
2022/07/25 11:24:39;;;;;;;;;;;27.10;65.20;;;;;;5024096;28;19917;-66
2022/07/25 11:27:05;;;;;;;;;;;27.20;65.10;;;;;;5024242;28;19913;-66
2022/07/25 11:29:30;;;;;;;;;;;27.20;65.20;;;;;;5023592;28;20020;-67
2022/07/25 11:31:56;;;;;;;;;;;27.30;65.60;;;;;;5024021;28;20451;-67
2022/07/25 11:34:23;;;;;;;;;;;27.40;65.20;;;;;;5042273;28;19913;-67
2022/07/25 11:36:50;;;;;;;;;;;27.50;65.50;;;;;;5023963;28;19919;-67
2022/07/25 11:39:16;;;;;;;;;;;27.60;64.90;;;;;;5011823;28;19929;-67
2022/07/25 11:41:42;;;;;;;;;;;27.70;64.80;;;;;;5023805;28;19981;-67
2022/07/25 11:44:07;;;;;;;;;;;27.80;65.10;;;;;;5023747;28;19913;-67
2022/07/25 11:46:43;;;;;;;;;;;27.80;64.70;;;;;;5023648;28;20021;-67
2022/07/25 11:49:08;;;;;;;;;;;27.90;64.80;;;;;;5006504;28;19913;-67
2022/07/25 11:51:37;;;;;;;;;;;28.00;64.50;;;;;;5023668;28;19920;-67
2022/07/25 11:54:07;;;;;;;;;;;28.10;64.20;;;;;;5023504;28;20719;-67
2022/07/25 11:56:36;;;;;;;;;;;28.10;64.20;;;;;;5028293;28;19920;-67
2022/07/25 11:59:01;;;;;;;;;;;28.10;64.10;;;;;;5023837;28;20477;-67
2022/07/25 12:01:34;;;;;;;;;;;28.20;63.70;;;;;;5023478;28;19913;-67
2022/07/25 12:04:07;;;;;;;;;;;28.10;64.00;;;;;;5041740;28;19913;-67
2022/07/25 12:06:32;;;;;;;;;;;28.20;64.40;;;;;;5020325;28;19942;-67
2022/07/25 12:09:08;;;;;;;;;;;28.10;64.40;;;;;;5005607;28;19913;-67
2022/07/25 12:11:34;;;;;;;;;;;28.30;63.80;;;;;;5023466;28;19924;-67
2022/07/25 12:14:06;;;;;;;;;;;28.30;63.20;;;;;;5023024;28;19917;-67
2022/07/25 12:16:31;;;;;;;;;;;28.40;63.70;;;;;;5022540;28;19913;-67
2022/07/25 12:18:57;;;;;;;;;;;28.40;63.10;;;;;;5022110;28;20373;-67
2022/07/25 12:21:23;;;;;;;;;;;28.30;62.50;;;;;;5037721;28;19998;-67
2022/07/25 12:23:48;;;;;;;;;;;28.30;63.10;;;;;;5022613;28;19952;-67
2022/07/25 12:26:14;;;;;;;;;;;28.40;63.20;;;;;;5022470;28;19913;-67
2022/07/25 12:28:39;;;;;;;;;;;28.40;62.90;;;;;;5023174;28;19932;-67
2022/07/25 12:31:05;;;;;;;;;;;28.40;62.20;;;;;;5022672;28;19964;-67
2022/07/25 12:33:31;;;;;;;;;;;28.40;62.50;;;;;;5016413;28;20631;-67
2022/07/25 12:35:57;;;;;;;;;;;28.40;62.90;;;;;;5022191;28;19989;-67
2022/07/25 12:38:23;;;;;;;;;;;28.40;62.90;;;;;;5021840;28;20035;-67
2022/07/25 12:40:49;;;;;;;;;;;28.40;62.70;;;;;;5021630;28;20011;-67
2022/07/25 12:43:14;;;;;;;;;;;28.40;62.70;;;;;;5039570;28;20003;-67
2022/07/25 12:45:41;;;;;;;;;;;28.60;61.70;;;;;;5037358;28;19921;-67
2022/07/25 12:48:07;;;;;;;;;;;28.60;62.10;;;;;;5021301;28;19924;-67
2022/07/25 12:50:32;;;;;;;;;;;28.60;62.90;;;;;;5032410;28;19917;-67
2022/07/25 12:52:58;;;;;;;;;;;28.70;62.10;;;;;;5038783;28;20425;-67
2022/07/25 12:55:23;;;;;;;;;;;28.80;61.70;;;;;;5021539;28;19951;-67
2022/07/25 12:57:49;;;;;;;;;;;28.80;62.00;;;;;;5021064;28;20008;-67
2022/07/25 13:00:15;;;;;;;;;;;28.80;62.20;;;;;;5018211;28;19952;-67
2022/07/25 13:02:41;;;;;;;;;;;28.90;61.90;;;;;;5021081;28;20363;-67
2022/07/25 13:05:07;;;;;;;;;;;29.00;61.50;;;;;;5022126;28;19913;-67
2022/07/25 13:07:32;;;;;;;;;;;29.10;61.60;;;;;;5021242;28;19961;-67
2022/07/25 13:09:58;;;;;;;;;;;29.00;61.70;;;;;;5021317;28;20460;-67
2022/07/25 13:12:24;;;;;;;;;;;29.00;60.90;;;;;;5036392;28;20303;-67
2022/07/25 13:14:50;;;;;;;;;;;29.10;61.10;;;;;;5039514;28;19913;-67
2022/07/25 13:17:15;;;;;;;;;;;29.10;61.90;;;;;;5029856;28;19993;-67
2022/07/25 13:19:41;;;;;;;;;;;29.10;61.80;;;;;;5028774;28;20776;-67
2022/07/25 13:22:06;;;;;;;;;;;29.10;61.00;;;;;;5027715;28;19917;-67
2022/07/25 13:24:33;;;;;;;;;;;29.10;61.60;;;;;;5004520;28;19936;-67
2022/07/25 13:27:01;;;;;;;;;;;29.00;61.70;;;;;;5021882;28;20000;-67
2022/07/25 13:29:27;;;;;;;;;;;29.10;61.80;;;;;;5016755;28;19914;-67
2022/07/25 13:31:52;;;;;;;;;;;29.00;62.10;;;;;;5028587;28;20270;-67
2022/07/25 13:34:18;;;;;;;;;;;29.00;61.90;;;;;;5021369;28;19917;-67
2022/07/25 13:36:43;;;;;;;;;;;29.00;61.90;;;;;;5021734;28;19989;-67
2022/07/25 13:39:08;;;;;;;;;;;29.00;61.60;;;;;;5032157;28;19913;-67
2022/07/25 13:41:34;;;;;;;;;;;29.20;61.70;;;;;;5039218;28;19913;-67
2022/07/25 13:44:00;;;;;;;;;;;29.20;61.80;;;;;;5038959;28;19915;-67
2022/07/25 13:46:25;;;;;;;;;;;29.20;61.40;;;;;;5030975;28;20310;-67
2022/07/25 13:48:50;;;;;;;;;;;29.40;61.10;;;;;;5002765;28;19916;-67
2022/07/25 13:51:16;;;;;;;;;;;29.50;61.10;;;;;;5020488;28;20656;-67
2022/07/25 13:53:43;;;;;;;;;;;29.50;60.40;;;;;;5025212;28;20436;-67
2022/07/25 13:56:09;;;;;;;;;;;29.60;60.40;;;;;;5027628;28;20525;-67
2022/07/25 13:58:35;;;;;;;;;;;29.60;60.70;;;;;;5042274;28;19962;-67
2022/07/25 14:01:00;;;;;;;;;;;29.70;60.70;;;;;;5027340;28;19916;-67
2022/07/25 14:03:26;;;;;;;;;;;29.80;60.30;;;;;;5021596;28;19921;-67
2022/07/25 14:05:51;;;;;;;;;;;29.80;60.70;;;;;;5027324;28;19920;-67
2022/07/25 14:08:17;;;;;;;;;;;29.80;60.70;;;;;;5027038;28;20012;-67
2022/07/25 14:10:43;;;;;;;;;;;29.90;60.70;;;;;;5027485;28;19928;-68
2022/07/25 14:13:08;;;;;;;;;;;29.80;60.70;;;;;;5027253;28;19913;-67